createdAt,value
2019-05-30T00:01:04.513Z,11.00
2019-05-30T00:03:34.274Z,11.00
2019-05-30T00:06:04.606Z,10.90
2019-05-30T00:08:34.408Z,10.90
2019-05-30T00:11:04.797Z,10.90
2019-05-30T00:13:34.581Z,10.90
2019-05-30T00:16:05.634Z,10.80
2019-05-30T00:18:35.545Z,10.80
2019-05-30T00:21:05.242Z,10.80
2019-05-30T00:23:34.919Z,10.70
2019-05-30T00:26:04.762Z,10.70
2019-05-30T00:28:34.493Z,10.60
2019-05-30T00:31:04.680Z,10.60
2019-05-30T00:33:34.465Z,10.60
2019-05-30T00:36:04.276Z,10.60
2019-05-30T00:38:33.989Z,10.50
2019-05-30T00:41:04.217Z,10.60
2019-05-30T00:43:34.008Z,10.50
2019-05-30T00:46:04.186Z,10.50
2019-05-30T00:48:34.010Z,10.50
2019-05-30T00:51:04.661Z,10.50
2019-05-30T00:53:35.585Z,10.50
2019-05-30T00:56:05.411Z,10.50
2019-05-30T00:58:35.130Z,10.50
2019-05-30T01:01:05.224Z,10.40
2019-05-30T01:03:34.965Z,10.40
2019-05-30T01:06:05.016Z,10.40
2019-05-30T01:08:34.748Z,10.40
2019-05-30T01:11:05.278Z,10.40
2019-05-30T01:13:35.026Z,10.30
2019-05-30T01:16:05.478Z,10.20
2019-05-30T01:18:35.324Z,10.20
2019-05-30T01:21:05.375Z,10.20
2019-05-30T01:23:36.855Z,10.20
2019-05-30T01:26:07.643Z,10.20
2019-05-30T01:28:37.364Z,10.10
2019-05-30T01:31:10.127Z,10.10
2019-05-30T01:33:38.414Z,10.10
2019-05-30T01:36:08.071Z,10.00
2019-05-30T01:38:37.784Z,10.00
2019-05-30T01:41:08.059Z,10.00
2019-05-30T01:43:37.839Z,10.00
2019-05-30T01:46:08.359Z,10.00
2019-05-30T01:48:38.083Z,9.90
2019-05-30T01:51:08.689Z,9.90
2019-05-30T01:53:38.412Z,9.90
2019-05-30T01:56:08.955Z,9.90
2019-05-30T01:58:38.748Z,9.80
2019-05-30T02:01:23.681Z,9.80
2019-05-30T02:03:40.868Z,9.80
2019-05-30T02:06:10.510Z,9.80
2019-05-30T02:08:40.310Z,9.80
2019-05-30T02:11:09.986Z,9.80
2019-05-30T02:13:41.572Z,9.80
2019-05-30T02:16:11.257Z,9.80
2019-05-30T02:18:40.995Z,9.80
2019-05-30T02:21:10.637Z,9.80
2019-05-30T02:23:40.341Z,9.70
2019-05-30T02:26:10.583Z,9.70
2019-05-30T02:28:40.474Z,9.60
2019-05-30T02:31:12.228Z,9.60
2019-05-30T02:33:41.542Z,9.60
2019-05-30T02:36:12.581Z,9.50
2019-05-30T02:38:42.540Z,9.50
2019-05-30T02:41:12.649Z,9.50
2019-05-30T02:43:42.525Z,9.40
2019-05-30T02:46:12.681Z,9.40
2019-05-30T02:48:57.997Z,9.40
2019-05-30T02:51:13.785Z,9.40
2019-05-30T02:53:43.476Z,9.40
2019-05-30T02:56:13.127Z,9.30
2019-05-30T02:58:42.864Z,9.30
2019-05-30T03:01:14.601Z,9.30
2019-05-30T03:03:44.998Z,9.30
2019-05-30T03:06:14.902Z,9.30
2019-05-30T03:08:44.671Z,9.30
2019-05-30T03:11:15.590Z,9.20
2019-05-30T03:13:45.422Z,9.20
2019-05-30T03:16:15.190Z,9.20
2019-05-30T03:18:44.902Z,9.20
2019-05-30T03:21:15.666Z,9.20
2019-05-30T03:23:46.607Z,9.20
2019-05-30T03:26:16.576Z,9.20
2019-05-30T03:28:46.507Z,9.30
2019-05-30T03:31:27.392Z,9.30
2019-05-30T03:33:48.933Z,9.40
2019-05-30T03:36:28.233Z,9.40
2019-05-30T03:38:50.022Z,9.50
2019-05-30T03:41:19.910Z,9.40
2019-05-30T03:43:50.540Z,9.50
2019-05-30T03:46:23.615Z,9.50
2019-05-30T03:48:54.814Z,9.50
2019-05-30T03:51:25.712Z,9.60
2019-05-30T03:53:56.609Z,9.60
2019-05-30T03:56:33.874Z,9.60
2019-05-30T03:59:13.119Z,9.60
2019-05-30T04:01:51.402Z,9.60
2019-05-30T04:04:26.200Z,9.70
2019-05-30T04:07:00.401Z,9.70
2019-05-30T04:09:32.217Z,9.70
2019-05-30T04:12:12.739Z,9.70
2019-05-30T04:14:45.514Z,9.80
2019-05-30T04:17:16.061Z,9.80
2019-05-30T04:19:46.615Z,9.90
2019-05-30T04:22:16.275Z,10.00
2019-05-30T04:24:45.934Z,10.00
2019-05-30T04:27:16.124Z,10.00
2019-05-30T04:29:46.490Z,10.00
2019-05-30T04:32:16.539Z,10.10
2019-05-30T04:34:46.445Z,10.10
2019-05-30T04:37:17.171Z,10.20
2019-05-30T04:39:47.492Z,10.30
2019-05-30T04:42:18.829Z,10.40
2019-05-30T04:44:48.558Z,10.50
2019-05-30T04:47:18.526Z,10.60
2019-05-30T04:49:48.696Z,11.00
2019-05-30T04:52:23.959Z,12.00
2019-05-30T04:54:49.794Z,13.40
2019-05-30T04:57:25.576Z,14.70
2019-05-30T04:59:50.882Z,15.80
2019-05-30T05:02:21.190Z,16.60
2019-05-30T05:04:51.868Z,17.30
2019-05-30T05:07:22.059Z,17.50
2019-05-30T05:09:51.850Z,17.80
2019-05-30T05:12:22.458Z,18.00
2019-05-30T05:14:52.283Z,18.20
2019-05-30T05:17:23.078Z,18.60
2019-05-30T05:19:53.919Z,18.80
2019-05-30T05:22:23.590Z,18.90
2019-05-30T05:24:53.223Z,19.30
2019-05-30T05:27:23.926Z,19.80
2019-05-30T05:29:53.718Z,20.10
2019-05-30T05:32:24.546Z,20.20
2019-05-30T05:34:54.462Z,20.30
2019-05-30T05:37:25.069Z,19.90
2019-05-30T05:39:55.029Z,20.10
2019-05-30T05:42:28.380Z,20.30
2019-05-30T05:44:56.077Z,20.50
2019-05-30T05:47:25.750Z,20.30
2019-05-30T05:49:55.596Z,20.00
2019-05-30T05:52:25.311Z,19.40
2019-05-30T05:54:55.109Z,19.10
2019-05-30T05:57:25.083Z,19.10
2019-05-30T05:59:54.778Z,19.30
2019-05-30T06:02:25.165Z,19.10
2019-05-30T06:04:54.891Z,19.20
2019-05-30T06:07:24.646Z,18.80
2019-05-30T06:09:55.293Z,18.70
2019-05-30T06:12:25.784Z,18.70
2019-05-30T06:14:56.862Z,18.50
2019-05-30T06:17:26.556Z,18.30
2019-05-30T06:19:56.246Z,18.60
2019-05-30T06:22:25.897Z,18.90
2019-05-30T06:24:55.575Z,19.20
2019-05-30T06:27:26.165Z,19.40
2019-05-30T06:29:55.887Z,19.70
2019-05-30T06:32:28.905Z,20.10
2019-05-30T06:34:58.700Z,20.20
2019-05-30T06:37:29.343Z,20.20
2019-05-30T06:39:59.132Z,20.30
2019-05-30T06:42:30.212Z,20.30
2019-05-30T06:45:01.048Z,20.30
2019-05-30T06:47:30.706Z,20.50
2019-05-30T06:50:00.423Z,20.70
2019-05-30T06:52:32.034Z,20.70
2019-05-30T06:55:01.578Z,20.80
2019-05-30T06:57:31.463Z,20.90
2019-05-30T07:00:01.149Z,20.90
2019-05-30T07:02:32.398Z,20.90
2019-05-30T07:05:02.875Z,20.90
2019-05-30T07:07:33.462Z,20.70
2019-05-30T07:10:05.061Z,20.50
2019-05-30T07:12:34.820Z,20.50
2019-05-30T07:15:05.773Z,20.40
2019-05-30T07:17:35.454Z,20.50
2019-05-30T07:20:05.922Z,20.70
2019-05-30T07:22:35.638Z,20.70
2019-05-30T07:25:06.404Z,20.40
2019-05-30T07:27:36.300Z,20.30
2019-05-30T07:30:06.701Z,20.30
2019-05-30T07:32:36.449Z,20.40
2019-05-30T07:35:07.640Z,20.50
2019-05-30T07:37:37.478Z,20.60
2019-05-30T07:40:07.763Z,20.50
2019-05-30T07:42:37.523Z,20.50
2019-05-30T07:45:08.963Z,20.60
2019-05-30T07:47:38.750Z,20.60
2019-05-30T07:50:09.721Z,20.60
2019-05-30T07:52:39.544Z,20.60
2019-05-30T07:55:11.429Z,20.40
2019-05-30T07:57:41.887Z,20.30
2019-05-30T08:00:13.437Z,20.30
2019-05-30T08:02:43.358Z,20.30
2019-05-30T08:05:23.681Z,20.20
2019-05-30T08:07:44.908Z,20.40
2019-05-30T08:10:14.970Z,20.50
2019-05-30T08:12:44.716Z,20.60
2019-05-30T08:15:15.082Z,20.60
2019-05-30T08:17:44.907Z,20.50
2019-05-30T08:20:15.063Z,20.50
2019-05-30T08:22:44.847Z,20.50
2019-05-30T08:25:14.788Z,20.30
2019-05-30T08:27:44.973Z,20.30
2019-05-30T08:30:15.634Z,20.20
2019-05-30T08:32:46.450Z,20.10
2019-05-30T08:35:16.331Z,20.00
2019-05-30T08:37:46.013Z,19.90
2019-05-30T08:40:17.341Z,19.90
2019-05-30T08:42:47.087Z,20.00
2019-05-30T08:45:18.335Z,19.90
2019-05-30T08:47:48.183Z,19.80
2019-05-30T08:50:18.321Z,19.80
2019-05-30T08:52:48.317Z,19.80
2019-05-30T08:55:19.169Z,19.90
2019-05-30T08:57:49.616Z,20.00
2019-05-30T09:00:21.485Z,20.00
2019-05-30T09:02:51.178Z,20.10
2019-05-30T09:05:21.209Z,20.20
2019-05-30T09:07:50.939Z,20.30
2019-05-30T09:10:20.763Z,20.20
2019-05-30T09:12:50.552Z,20.10
2019-05-30T09:15:22.063Z,20.10
2019-05-30T09:17:52.175Z,20.10
2019-05-30T09:20:22.611Z,20.20
2019-05-30T09:22:52.469Z,20.30
2019-05-30T09:25:23.579Z,20.40
2019-05-30T09:27:53.886Z,20.40
2019-05-30T09:30:24.297Z,20.40
2019-05-30T09:32:54.132Z,20.30
2019-05-30T09:35:24.311Z,20.30
2019-05-30T09:37:53.999Z,20.40
2019-05-30T09:40:24.179Z,20.30
2019-05-30T09:42:53.865Z,20.30
2019-05-30T09:45:25.319Z,20.30
2019-05-30T09:47:54.983Z,20.40
2019-05-30T09:50:24.924Z,20.50
2019-05-30T09:52:54.628Z,20.50
2019-05-30T09:55:24.641Z,20.50
2019-05-30T09:57:54.283Z,20.60
2019-05-30T10:00:24.376Z,20.60
2019-05-30T10:02:54.119Z,20.70
2019-05-30T10:05:25.009Z,20.80
2019-05-30T10:07:54.797Z,20.90
2019-05-30T10:10:24.770Z,20.90
2019-05-30T10:12:54.488Z,20.80
2019-05-30T10:15:24.489Z,20.60
2019-05-30T10:17:54.709Z,20.70
2019-05-30T10:20:24.705Z,20.70
2019-05-30T10:22:55.438Z,20.60
2019-05-30T10:25:25.093Z,20.70
2019-05-30T10:27:55.000Z,20.90
2019-05-30T10:30:25.241Z,20.90
2019-05-30T10:32:55.917Z,21.00
2019-05-30T10:35:29.448Z,21.10
2019-05-30T10:37:57.338Z,21.20
2019-05-30T10:40:27.379Z,21.20
2019-05-30T10:42:57.176Z,21.20
2019-05-30T10:45:28.138Z,21.30
2019-05-30T10:47:58.026Z,21.40
2019-05-30T10:50:28.716Z,21.40
2019-05-30T10:52:58.526Z,21.60
2019-05-30T10:55:28.506Z,21.70
2019-05-30T10:57:59.678Z,21.70
2019-05-30T11:00:53.001Z,21.80
2019-05-30T11:03:24.641Z,21.80
2019-05-30T11:06:01.629Z,21.80
2019-05-30T11:08:32.471Z,21.80
2019-05-30T11:11:02.254Z,21.90
2019-05-30T11:13:33.244Z,21.90
2019-05-30T11:16:03.126Z,21.90
2019-05-30T11:18:33.374Z,22.00
2019-05-30T11:21:03.399Z,22.00
2019-05-30T11:23:33.102Z,21.90
2019-05-30T11:26:02.874Z,21.70
2019-05-30T11:28:32.652Z,21.60
2019-05-30T11:31:04.517Z,21.70
2019-05-30T11:33:33.827Z,21.70
2019-05-30T11:36:04.124Z,21.70
2019-05-30T11:38:34.392Z,21.60
2019-05-30T11:41:04.142Z,21.70
2019-05-30T11:43:33.910Z,21.80
2019-05-30T11:46:04.640Z,21.80
2019-05-30T11:48:34.448Z,21.90
2019-05-30T11:51:04.238Z,22.00
2019-05-30T11:53:34.474Z,22.10
2019-05-30T11:56:04.250Z,22.20
2019-05-30T11:58:34.072Z,22.30
2019-05-30T12:01:03.875Z,22.40
2019-05-30T12:03:34.047Z,22.40
2019-05-30T12:06:03.964Z,22.50
2019-05-30T12:08:34.244Z,22.50
2019-05-30T12:11:04.182Z,22.30
2019-05-30T12:13:33.960Z,22.30
2019-05-30T12:16:05.412Z,22.40
2019-05-30T12:18:35.346Z,22.50
2019-05-30T12:21:05.193Z,22.50
2019-05-30T12:23:39.863Z,22.60
2019-05-30T12:26:09.691Z,22.50
2019-05-30T12:28:41.086Z,22.40
2019-05-30T12:31:10.871Z,22.30
2019-05-30T12:33:41.622Z,22.40
2019-05-30T12:36:11.500Z,22.70
2019-05-30T12:38:41.258Z,22.80
2019-05-30T12:41:11.012Z,22.70
2019-05-30T12:43:40.848Z,22.70
2019-05-30T12:46:12.053Z,22.80
2019-05-30T12:48:41.829Z,23.00
2019-05-30T12:51:11.729Z,22.90
2019-05-30T12:53:41.506Z,22.80
2019-05-30T12:56:11.202Z,22.80
2019-05-30T12:58:41.975Z,22.80
2019-05-30T13:01:12.068Z,22.90
2019-05-30T13:03:41.996Z,22.90
2019-05-30T13:06:11.958Z,22.90
2019-05-30T13:08:41.720Z,23.00
2019-05-30T13:11:11.439Z,23.00
2019-05-30T13:13:47.756Z,23.10
2019-05-30T13:16:22.239Z,23.00
2019-05-30T13:18:52.022Z,22.90
2019-05-30T13:21:24.064Z,22.90
2019-05-30T13:23:53.729Z,23.10
2019-05-30T13:26:23.591Z,23.10
2019-05-30T13:28:53.371Z,23.20
2019-05-30T13:31:23.055Z,23.40
2019-05-30T13:33:53.111Z,23.50
2019-05-30T13:36:22.757Z,23.60
2019-05-30T13:38:52.435Z,23.60
2019-05-30T13:41:22.144Z,23.70
2019-05-30T13:43:51.827Z,23.70
2019-05-30T13:46:21.493Z,23.80
2019-05-30T13:48:51.174Z,23.70
2019-05-30T13:51:21.043Z,23.70
2019-05-30T13:53:51.029Z,23.80
2019-05-30T13:56:20.776Z,23.90
2019-05-30T13:58:50.460Z,24.00
2019-05-30T14:01:20.153Z,24.00
2019-05-30T14:03:51.829Z,24.00
2019-05-30T14:06:21.599Z,24.00
2019-05-30T14:08:51.519Z,23.80
2019-05-30T14:11:21.277Z,23.80
2019-05-30T14:13:50.943Z,23.80
2019-05-30T14:16:20.625Z,23.90
2019-05-30T14:18:50.505Z,23.90
2019-05-30T14:21:20.225Z,24.00
2019-05-30T14:23:49.931Z,24.10
2019-05-30T14:26:19.709Z,24.10
2019-05-30T14:28:49.523Z,24.10
2019-05-30T14:31:19.234Z,24.30
2019-05-30T14:33:51.814Z,24.50
2019-05-30T14:36:21.466Z,24.50
2019-05-30T14:38:58.227Z,24.60
2019-05-30T14:41:22.776Z,24.80
2019-05-30T14:43:52.423Z,24.80
2019-05-30T14:46:22.270Z,24.80
2019-05-30T14:48:52.024Z,24.60
2019-05-30T14:51:21.709Z,24.60
2019-05-30T14:53:51.409Z,24.60
2019-05-30T14:56:22.969Z,24.70
2019-05-30T14:58:52.936Z,24.60
2019-05-30T15:01:22.725Z,24.80
2019-05-30T15:03:52.555Z,24.80
2019-05-30T15:06:22.262Z,24.90
2019-05-30T15:08:53.567Z,24.80
2019-05-30T15:11:23.511Z,24.70
2019-05-30T15:13:53.161Z,24.70
2019-05-30T15:16:22.974Z,24.60
2019-05-30T15:18:52.683Z,24.40
2019-05-30T15:21:22.378Z,24.40
2019-05-30T15:23:52.076Z,24.60
2019-05-30T15:26:21.769Z,24.70
2019-05-30T15:28:51.503Z,24.80
2019-05-30T15:31:21.415Z,25.00
2019-05-30T15:33:51.364Z,24.90
2019-05-30T15:36:21.096Z,24.90
2019-05-30T15:38:50.834Z,24.80
2019-05-30T15:41:20.621Z,24.80
2019-05-30T15:43:50.472Z,24.50
2019-05-30T15:46:20.270Z,24.30
2019-05-30T15:48:49.948Z,24.10
2019-05-30T15:51:19.678Z,23.90
2019-05-30T15:53:49.551Z,23.80
2019-05-30T15:56:19.487Z,23.70
2019-05-30T15:58:49.200Z,23.60
2019-05-30T16:01:20.078Z,23.60
2019-05-30T16:03:49.860Z,23.60
2019-05-30T16:06:20.849Z,23.70
2019-05-30T16:08:51.629Z,23.70
2019-05-30T16:11:22.868Z,23.60
2019-05-30T16:13:52.555Z,23.60
2019-05-30T16:16:33.745Z,23.70
2019-05-30T16:18:53.811Z,23.80
2019-05-30T16:21:24.506Z,23.70
2019-05-30T16:23:54.141Z,23.70
2019-05-30T16:26:23.813Z,23.60
2019-05-30T16:28:53.546Z,23.60
2019-05-30T16:31:23.234Z,23.50
2019-05-30T16:33:52.895Z,23.50
2019-05-30T16:36:22.704Z,23.40
2019-05-30T16:38:52.466Z,23.40
2019-05-30T16:41:22.629Z,23.50
2019-05-30T16:43:52.414Z,23.50
2019-05-30T16:46:22.684Z,23.50
2019-05-30T16:48:52.661Z,23.50
2019-05-30T16:51:23.544Z,23.50
2019-05-30T16:53:53.363Z,23.40
2019-05-30T16:56:23.575Z,23.30
2019-05-30T16:58:53.372Z,23.20
2019-05-30T17:01:24.209Z,23.10
2019-05-30T17:03:54.083Z,23.10
2019-05-30T17:06:23.830Z,23.10
2019-05-30T17:08:54.488Z,23.10
2019-05-30T17:11:25.510Z,23.10
2019-05-30T17:13:55.295Z,23.10
2019-05-30T17:16:26.311Z,23.20
2019-05-30T17:18:56.097Z,23.20
2019-05-30T17:21:26.794Z,23.20
2019-05-30T17:23:56.534Z,23.10
2019-05-30T17:26:27.331Z,23.00
2019-05-30T17:28:57.094Z,22.90
2019-05-30T17:31:28.485Z,22.70
2019-05-30T17:33:58.383Z,22.40
2019-05-30T17:36:28.459Z,22.20
2019-05-30T17:38:58.204Z,22.00
2019-05-30T17:41:28.930Z,21.90
2019-05-30T17:43:58.756Z,21.80
2019-05-30T17:46:29.842Z,21.70
2019-05-30T17:49:00.862Z,21.60
2019-05-30T17:51:30.520Z,21.60
2019-05-30T17:54:00.234Z,21.60
2019-05-30T17:56:30.296Z,21.60
2019-05-30T17:59:00.141Z,21.60
2019-05-30T18:01:30.563Z,21.60
2019-05-30T18:04:00.331Z,21.50
2019-05-30T18:06:30.816Z,21.50
2019-05-30T18:09:00.535Z,21.40
2019-05-30T18:11:31.899Z,21.30
2019-05-30T18:14:01.538Z,21.20
2019-05-30T18:16:31.482Z,21.10
2019-05-30T18:19:02.133Z,21.00
2019-05-30T18:21:31.924Z,20.90
2019-05-30T18:24:01.944Z,20.80
2019-05-30T18:26:32.012Z,20.70
2019-05-30T18:29:01.704Z,20.70
2019-05-30T18:31:32.288Z,20.70
2019-05-30T18:34:02.293Z,20.60
2019-05-30T18:36:32.676Z,20.60
2019-05-30T18:39:02.524Z,20.60
2019-05-30T18:41:33.889Z,20.50
2019-05-30T18:44:03.727Z,20.50
2019-05-30T18:46:33.468Z,20.50
2019-05-30T18:49:04.231Z,20.40
2019-05-30T18:51:33.862Z,20.40
2019-05-30T18:54:03.664Z,20.30
2019-05-30T18:56:33.313Z,20.30
2019-05-30T18:59:02.996Z,20.20
2019-05-30T19:01:33.770Z,20.20
2019-05-30T19:04:04.195Z,20.20
2019-05-30T19:06:34.045Z,20.20
2019-05-30T19:09:06.731Z,20.10
2019-05-30T19:11:37.017Z,20.10
2019-05-30T19:14:08.116Z,20.00
2019-05-30T19:16:39.445Z,20.00
2019-05-30T19:19:09.119Z,20.00
2019-05-30T19:21:38.883Z,20.00
2019-05-30T19:24:08.597Z,20.00
2019-05-30T19:26:38.343Z,20.00
2019-05-30T19:29:08.051Z,19.90
2019-05-30T19:31:37.721Z,20.00
2019-05-30T19:34:07.486Z,19.90
2019-05-30T19:36:38.305Z,20.00
2019-05-30T19:39:08.074Z,19.90
2019-05-30T19:41:52.625Z,19.90
2019-05-30T19:44:09.307Z,19.90
2019-05-30T19:46:39.137Z,19.90
2019-05-30T19:49:08.895Z,19.90
2019-05-30T19:51:39.243Z,19.80
2019-05-30T19:54:09.983Z,19.80
2019-05-30T19:56:41.663Z,19.80
2019-05-30T19:59:11.138Z,19.70
2019-05-30T20:01:40.876Z,19.70
2019-05-30T20:04:10.554Z,19.70
2019-05-30T20:06:40.870Z,19.60
2019-05-30T20:09:10.752Z,19.60
2019-05-30T20:11:41.577Z,19.50
2019-05-30T20:14:11.359Z,19.50
2019-05-30T20:16:42.004Z,19.40
2019-05-30T20:19:11.763Z,19.40
2019-05-30T20:21:42.040Z,19.30
2019-05-30T20:24:11.807Z,19.30
2019-05-30T20:26:42.800Z,19.20
2019-05-30T20:29:12.589Z,19.20
2019-05-30T20:31:43.648Z,19.20
2019-05-30T20:34:13.489Z,19.10
2019-05-30T20:36:43.469Z,19.10
2019-05-30T20:39:13.154Z,19.10
2019-05-30T20:41:43.182Z,19.00
2019-05-30T20:44:12.994Z,18.90
2019-05-30T20:46:43.231Z,18.80
2019-05-30T20:49:13.141Z,18.70
2019-05-30T20:51:43.412Z,18.70
2019-05-30T20:54:13.288Z,18.70
2019-05-30T20:56:44.118Z,18.70
2019-05-30T20:59:14.767Z,18.70
2019-05-30T21:01:45.824Z,18.70
2019-05-30T21:04:15.765Z,18.70
2019-05-30T21:06:47.192Z,18.70
2019-05-30T21:09:28.594Z,18.60
2019-05-30T21:11:50.501Z,18.70
2019-05-30T21:14:26.972Z,18.60
2019-05-30T21:16:54.961Z,18.50
2019-05-30T21:19:24.701Z,18.50
2019-05-30T21:21:54.433Z,18.40
2019-05-30T21:24:24.100Z,18.40
2019-05-30T21:26:53.884Z,18.30
2019-05-30T21:29:23.769Z,18.30
2019-05-30T21:31:53.521Z,18.30
2019-05-30T21:34:23.363Z,18.20
2019-05-30T21:36:53.041Z,18.20
2019-05-30T21:39:22.791Z,18.20
2019-05-30T21:41:52.783Z,18.10
2019-05-30T21:44:22.564Z,18.10
2019-05-30T21:46:52.295Z,18.10
2019-05-30T21:49:22.119Z,18.20
2019-05-30T21:51:51.858Z,18.20
2019-05-30T21:54:21.566Z,18.20
2019-05-30T21:56:51.560Z,18.20
2019-05-30T21:59:21.375Z,18.20
2019-05-30T22:01:56.564Z,18.10
2019-05-30T22:04:22.602Z,18.10
2019-05-30T22:06:52.424Z,18.10
2019-05-30T22:09:22.373Z,18.00
2019-05-30T22:11:52.191Z,18.00
2019-05-30T22:14:21.976Z,18.00
2019-05-30T22:16:52.164Z,18.10
2019-05-30T22:19:22.211Z,18.10
2019-05-30T22:21:52.422Z,18.00
2019-05-30T22:24:22.237Z,18.00
2019-05-30T22:26:52.624Z,17.90
2019-05-30T22:29:22.501Z,18.00
2019-05-30T22:31:53.498Z,17.90
2019-05-30T22:34:23.606Z,17.90
2019-05-30T22:36:53.635Z,17.80
2019-05-30T22:39:23.366Z,17.80
2019-05-30T22:41:53.068Z,17.80
2019-05-30T22:44:24.364Z,17.70
2019-05-30T22:46:54.165Z,17.70
2019-05-30T22:49:23.871Z,17.70
2019-05-30T22:51:53.647Z,17.70
2019-05-30T22:54:23.480Z,17.70
2019-05-30T22:56:53.574Z,17.70
2019-05-30T22:59:23.406Z,17.70
2019-05-30T23:01:53.659Z,17.70
2019-05-30T23:04:25.153Z,17.70
2019-05-30T23:06:54.950Z,17.60
2019-05-30T23:09:25.041Z,17.60
2019-05-30T23:11:55.995Z,17.60
2019-05-30T23:14:25.779Z,17.60
2019-05-30T23:16:56.453Z,17.60
2019-05-30T23:19:26.298Z,17.70
2019-05-30T23:21:57.216Z,17.70
2019-05-30T23:24:27.035Z,17.70
2019-05-30T23:26:59.965Z,17.70
2019-05-30T23:29:29.883Z,17.70
2019-05-30T23:31:59.573Z,17.70
2019-05-30T23:34:29.340Z,17.60
2019-05-30T23:36:59.100Z,17.60
2019-05-30T23:39:28.909Z,17.50
2019-05-30T23:41:59.318Z,17.50
2019-05-30T23:44:29.315Z,17.50
2019-05-30T23:46:59.772Z,17.50
2019-05-30T23:49:29.601Z,17.50
2019-05-30T23:52:00.369Z,17.40
2019-05-30T23:54:30.307Z,17.40
2019-05-30T23:57:00.826Z,17.40
2019-05-30T23:59:30.746Z,17.30
